createdAt,value
2019-02-03T00:00:49.728Z,118.75
2019-02-03T00:03:16.196Z,115.10
2019-02-03T00:05:42.257Z,120.17
2019-02-03T00:08:08.332Z,119.17
2019-02-03T00:10:34.392Z,119.35
2019-02-03T00:13:00.492Z,110.90
2019-02-03T00:15:26.813Z,116.55
2019-02-03T00:17:52.840Z,116.65
2019-02-03T00:20:19.664Z,114.40
2019-02-03T00:22:45.732Z,110.65
2019-02-03T00:25:12.693Z,110.37
2019-02-03T00:27:38.735Z,114.12
2019-02-03T00:30:13.011Z,114.82
2019-02-03T00:32:39.056Z,114.82
2019-02-03T00:35:05.587Z,118.77
2019-02-03T00:37:31.619Z,115.50
2019-02-03T00:39:57.886Z,112.07
2019-02-03T00:42:23.941Z,108.20
2019-02-03T00:44:49.988Z,109.27
2019-02-03T00:47:16.187Z,151.75
2019-02-03T00:49:42.239Z,130.80
2019-02-03T00:52:08.369Z,114.60
2019-02-03T00:54:34.476Z,116.47
2019-02-03T00:57:00.508Z,111.72
2019-02-03T00:59:26.821Z,108.70
2019-02-03T01:01:52.872Z,108.77
2019-02-03T01:04:18.934Z,105.78
2019-02-03T01:06:45.032Z,112.80
2019-02-03T01:09:11.083Z,104.25
2019-02-03T01:11:37.460Z,103.90
2019-02-03T01:14:03.613Z,105.33
2019-02-03T01:16:29.667Z,113.65
2019-02-03T01:18:55.804Z,114.35
2019-02-03T01:21:21.830Z,112.17
2019-02-03T01:23:47.868Z,109.80
2019-02-03T01:26:14.120Z,106.55
2019-02-03T01:28:40.449Z,105.15
2019-02-03T01:31:06.507Z,100.78
2019-02-03T01:33:32.662Z,102.50
2019-02-03T01:35:58.696Z,106.67
2019-02-03T01:38:24.727Z,120.42
2019-02-03T01:40:50.771Z,123.20
2019-02-03T01:43:16.807Z,113.32
2019-02-03T01:45:42.872Z,110.03
2019-02-03T01:48:09.133Z,111.30
2019-02-03T01:50:35.139Z,112.42
2019-02-03T01:53:01.235Z,114.10
2019-02-03T01:55:27.289Z,103.35
2019-02-03T01:57:53.297Z,110.88
2019-02-03T02:00:27.443Z,104.50
2019-02-03T02:02:54.024Z,102.40
2019-02-03T02:05:20.443Z,107.78
2019-02-03T02:07:51.869Z,136.52
2019-02-03T02:10:16.924Z,96.72
2019-02-03T02:12:43.064Z,92.57
2019-02-03T02:15:13.284Z,98.60
2019-02-03T02:17:39.512Z,98.70
2019-02-03T02:20:09.568Z,98.37
2019-02-03T02:22:35.627Z,96.90
2019-02-03T02:25:01.697Z,99.90
2019-02-03T02:27:28.322Z,97.20
2019-02-03T02:29:54.399Z,97.15
2019-02-03T02:32:20.630Z,94.77
2019-02-03T02:34:46.720Z,93.72
2019-02-03T02:37:13.112Z,98.45
2019-02-03T02:39:39.177Z,91.70
2019-02-03T02:42:05.310Z,93.58
2019-02-03T02:44:31.355Z,89.43
2019-02-03T02:46:57.505Z,93.45
2019-02-03T02:49:23.740Z,93.65
2019-02-03T02:51:49.767Z,99.50
2019-02-03T02:54:15.830Z,96.97
2019-02-03T02:56:41.919Z,98.27
2019-02-03T02:59:07.957Z,91.92
2019-02-03T03:01:34.003Z,151.30
2019-02-03T03:04:00.089Z,114.73
2019-02-03T03:06:26.136Z,91.30
2019-02-03T03:08:52.170Z,84.55
2019-02-03T03:11:18.223Z,93.85
2019-02-03T03:13:44.809Z,81.25
2019-02-03T03:16:10.847Z,83.55
2019-02-03T03:18:36.930Z,90.15
2019-02-03T03:21:03.264Z,79.65
2019-02-03T03:23:29.363Z,90.65
2019-02-03T03:25:55.407Z,90.00
2019-02-03T03:28:21.452Z,77.60
2019-02-03T03:30:47.903Z,84.35
2019-02-03T03:33:14.252Z,82.13
2019-02-03T03:35:40.412Z,76.30
2019-02-03T03:38:06.643Z,78.20
2019-02-03T03:40:32.853Z,78.30
2019-02-03T03:42:59.080Z,76.70
2019-02-03T03:45:25.531Z,75.78
2019-02-03T03:47:51.970Z,73.28
2019-02-03T03:50:18.131Z,71.15
2019-02-03T03:52:44.381Z,69.58
2019-02-03T03:55:10.632Z,67.70
2019-02-03T03:57:37.064Z,68.52
2019-02-03T04:00:09.660Z,69.42
2019-02-03T04:02:35.767Z,61.37
2019-02-03T04:05:04.791Z,66.17
2019-02-03T04:07:30.861Z,66.12
2019-02-03T04:09:57.051Z,65.57
2019-02-03T04:12:23.069Z,64.27
2019-02-03T04:14:49.306Z,63.65
2019-02-03T04:17:15.341Z,61.75
2019-02-03T04:19:41.361Z,66.33
2019-02-03T04:22:07.536Z,65.40
2019-02-03T04:24:33.574Z,63.73
2019-02-03T04:26:59.618Z,64.63
2019-02-03T04:29:25.691Z,61.25
2019-02-03T04:31:51.827Z,59.05
2019-02-03T04:34:17.878Z,59.05
2019-02-03T04:36:44.052Z,56.77
2019-02-03T04:39:10.105Z,60.45
2019-02-03T04:41:36.545Z,56.17
2019-02-03T04:44:03.628Z,56.73
2019-02-03T04:46:29.645Z,57.60
2019-02-03T04:48:55.699Z,56.68
2019-02-03T04:51:21.832Z,53.52
2019-02-03T04:53:47.941Z,55.45
2019-02-03T04:56:14.108Z,53.98
2019-02-03T04:58:40.256Z,50.85
2019-02-03T05:01:06.284Z,51.30
2019-02-03T05:03:32.315Z,52.10
2019-02-03T05:05:58.489Z,48.68
2019-02-03T05:08:24.539Z,52.35
2019-02-03T05:10:50.595Z,48.77
2019-02-03T05:13:16.683Z,49.35
2019-02-03T05:15:42.731Z,49.58
2019-02-03T05:18:09.095Z,53.13
2019-02-03T05:20:35.250Z,48.48
2019-02-03T05:23:01.280Z,49.10
2019-02-03T05:25:27.349Z,46.25
2019-02-03T05:27:53.386Z,44.00
2019-02-03T05:30:25.241Z,46.77
2019-02-03T05:32:51.261Z,45.00
2019-02-03T05:35:17.684Z,46.25
2019-02-03T05:37:43.766Z,44.98
2019-02-03T05:40:12.752Z,43.47
2019-02-03T05:42:38.836Z,42.55
2019-02-03T05:45:11.687Z,43.80
2019-02-03T05:47:37.879Z,44.85
2019-02-03T05:50:09.830Z,42.85
2019-02-03T05:52:35.863Z,42.67
2019-02-03T05:55:02.558Z,43.23
2019-02-03T05:57:28.651Z,42.38
2019-02-03T05:59:54.704Z,40.40
2019-02-03T06:02:20.795Z,37.55
2019-02-03T06:04:46.868Z,39.23
2019-02-03T06:07:13.306Z,39.40
2019-02-03T06:09:39.371Z,43.15
2019-02-03T06:12:05.633Z,37.07
2019-02-03T06:14:31.745Z,39.23
2019-02-03T06:16:57.792Z,36.68
2019-02-03T06:19:23.851Z,39.80
2019-02-03T06:21:49.994Z,35.48
2019-02-03T06:24:16.028Z,37.70
2019-02-03T06:26:42.376Z,39.83
2019-02-03T06:29:08.418Z,37.95
2019-02-03T06:31:34.510Z,36.85
2019-02-03T06:34:00.608Z,40.10
2019-02-03T06:36:26.656Z,36.42
2019-02-03T06:38:52.801Z,36.73
2019-02-03T06:41:18.886Z,38.05
2019-02-03T06:43:45.327Z,35.92
2019-02-03T06:46:16.443Z,34.73
2019-02-03T06:48:42.527Z,35.05
2019-02-03T06:51:08.668Z,33.08
2019-02-03T06:53:34.867Z,35.58
2019-02-03T06:56:00.907Z,35.30
2019-02-03T06:58:26.955Z,39.78
2019-02-03T07:00:53.307Z,33.13
2019-02-03T07:03:19.367Z,34.53
2019-02-03T07:05:45.448Z,34.45
2019-02-03T07:08:11.459Z,35.77
2019-02-03T07:10:37.628Z,35.13
2019-02-03T07:13:03.840Z,33.20
2019-02-03T07:15:29.983Z,35.75
2019-02-03T07:17:56.100Z,32.83
2019-02-03T07:20:22.166Z,36.00
2019-02-03T07:22:48.279Z,36.65
2019-02-03T07:25:14.335Z,34.50
2019-02-03T07:27:40.563Z,33.67
2019-02-03T07:30:15.761Z,36.20
2019-02-03T07:32:41.878Z,34.00
2019-02-03T07:35:08.427Z,37.17
2019-02-03T07:37:34.464Z,32.70
2019-02-03T07:40:11.615Z,33.63
2019-02-03T07:42:30.556Z,33.10
2019-02-03T07:44:56.618Z,34.30
2019-02-03T07:47:22.708Z,35.35
2019-02-03T07:49:48.751Z,33.63
2019-02-03T07:52:15.308Z,35.20
2019-02-03T07:54:41.379Z,32.85
2019-02-03T07:57:07.477Z,31.50
2019-02-03T07:59:33.580Z,34.30
2019-02-03T08:01:59.638Z,33.65
2019-02-03T08:04:25.792Z,31.80
2019-02-03T08:06:51.824Z,32.88
2019-02-03T08:09:18.084Z,33.35
2019-02-03T08:11:44.533Z,31.82
2019-02-03T08:14:10.592Z,33.58
2019-02-03T08:16:36.769Z,33.45
2019-02-03T08:19:03.017Z,32.50
2019-02-03T08:21:29.071Z,32.05
2019-02-03T08:23:55.116Z,34.60
2019-02-03T08:26:21.373Z,34.65
2019-02-03T08:28:47.727Z,37.25
2019-02-03T08:31:13.947Z,32.67
2019-02-03T08:33:40.013Z,35.92
2019-02-03T08:36:06.671Z,33.95
2019-02-03T08:38:32.730Z,34.27
2019-02-03T08:40:58.863Z,38.35
2019-02-03T08:43:24.900Z,32.23
2019-02-03T08:45:50.964Z,34.15
2019-02-03T08:48:17.387Z,30.70
2019-02-03T08:50:43.732Z,34.73
2019-02-03T08:53:10.000Z,35.17
2019-02-03T08:55:36.035Z,34.13
2019-02-03T08:58:02.283Z,33.90
2019-02-03T09:00:31.040Z,33.50
2019-02-03T09:02:57.068Z,32.20
2019-02-03T09:05:23.318Z,30.62
2019-02-03T09:07:49.462Z,30.32
2019-02-03T09:10:18.110Z,29.87
2019-02-03T09:12:44.144Z,32.05
2019-02-03T09:15:14.192Z,32.17
2019-02-03T09:17:40.348Z,32.98
2019-02-03T09:20:12.772Z,28.20
2019-02-03T09:22:40.162Z,26.48
2019-02-03T09:25:08.341Z,34.10
2019-02-03T09:27:34.391Z,35.23
2019-02-03T09:30:00.429Z,28.45
2019-02-03T09:32:26.463Z,29.87
2019-02-03T09:34:52.495Z,27.27
2019-02-03T09:37:18.639Z,29.45
2019-02-03T09:39:45.295Z,29.52
2019-02-03T09:42:11.364Z,32.53
2019-02-03T09:44:37.418Z,24.32
2019-02-03T09:47:03.641Z,26.60
2019-02-03T09:49:29.776Z,24.10
2019-02-03T09:51:55.856Z,23.55
2019-02-03T09:54:21.899Z,26.20
2019-02-03T09:56:48.016Z,26.70
2019-02-03T09:59:14.468Z,20.93
2019-02-03T10:01:40.508Z,18.90
2019-02-03T10:04:06.559Z,18.77
2019-02-03T10:06:32.862Z,46.02
2019-02-03T10:08:58.888Z,29.35
2019-02-03T10:11:24.911Z,19.10
2019-02-03T10:13:50.956Z,17.98
2019-02-03T10:16:16.998Z,19.00
2019-02-03T10:18:43.055Z,17.00
2019-02-03T10:21:09.094Z,17.55
2019-02-03T10:23:35.111Z,16.47
2019-02-03T10:26:01.135Z,14.73
2019-02-03T10:28:27.181Z,17.40
2019-02-03T10:30:53.324Z,15.37
2019-02-03T10:33:19.406Z,14.83
2019-02-03T10:35:46.090Z,12.47
2019-02-03T10:38:12.219Z,16.65
2019-02-03T10:40:40.664Z,11.75
2019-02-03T10:43:07.904Z,13.30
2019-02-03T10:45:34.143Z,104.58
2019-02-03T10:48:00.212Z,22.62
2019-02-03T10:50:29.056Z,12.07
2019-02-03T10:52:55.292Z,12.95
2019-02-03T10:55:21.646Z,14.20
2019-02-03T10:57:47.915Z,10.95
2019-02-03T11:00:19.951Z,11.83
2019-02-03T11:02:46.200Z,11.35
2019-02-03T11:05:17.600Z,11.08
2019-02-03T11:07:44.209Z,10.82
2019-02-03T11:10:14.117Z,12.78
2019-02-03T11:12:40.247Z,11.97
2019-02-03T11:15:09.538Z,12.80
2019-02-03T11:17:35.555Z,11.85
2019-02-03T11:20:02.812Z,11.55
2019-02-03T11:22:28.875Z,10.85
2019-02-03T11:24:54.992Z,67.55
2019-02-03T11:27:21.030Z,30.55
2019-02-03T11:29:47.481Z,11.95
2019-02-03T11:32:13.686Z,9.68
2019-02-03T11:34:39.813Z,13.22
2019-02-03T11:37:05.973Z,11.00
2019-02-03T11:39:32.030Z,12.20
2019-02-03T11:41:58.058Z,11.87
2019-02-03T11:44:24.271Z,11.43
2019-02-03T11:46:50.448Z,10.80
2019-02-03T11:49:16.585Z,24.15
2019-02-03T11:51:42.737Z,11.60
2019-02-03T11:54:08.771Z,10.75
2019-02-03T11:56:34.904Z,10.68
2019-02-03T11:59:00.969Z,12.45
2019-02-03T12:01:26.990Z,12.20
2019-02-03T12:03:53.045Z,36.60
2019-02-03T12:06:19.191Z,63.40
2019-02-03T12:08:45.433Z,11.22
2019-02-03T12:11:11.483Z,12.30
2019-02-03T12:13:37.767Z,8.85
2019-02-03T12:16:06.289Z,10.05
2019-02-03T12:18:32.532Z,12.50
2019-02-03T12:20:58.652Z,12.90
2019-02-03T12:23:24.879Z,9.65
2019-02-03T12:25:51.040Z,12.75
2019-02-03T12:28:17.069Z,14.90
2019-02-03T12:30:44.195Z,16.73
2019-02-03T12:33:10.407Z,13.30
2019-02-03T12:35:36.535Z,10.60
2019-02-03T12:38:04.232Z,11.43
2019-02-03T12:40:33.476Z,8.28
2019-02-03T12:42:59.923Z,8.60
2019-02-03T12:45:27.193Z,8.10
2019-02-03T12:47:53.403Z,7.33
2019-02-03T12:50:19.450Z,9.55
2019-02-03T12:52:47.108Z,9.70
2019-02-03T12:55:19.761Z,69.80
2019-02-03T12:57:46.749Z,33.35
2019-02-03T13:00:16.186Z,9.20
2019-02-03T13:02:42.270Z,11.20
2019-02-03T13:05:11.269Z,8.50
2019-02-03T13:07:37.312Z,8.65
2019-02-03T13:10:16.935Z,10.00
2019-02-03T13:12:43.307Z,9.63
2019-02-03T13:15:12.877Z,8.75
2019-02-03T13:17:39.206Z,12.37
2019-02-03T13:20:09.241Z,14.13
2019-02-03T13:22:35.598Z,13.83
2019-02-03T13:25:02.024Z,12.70
2019-02-03T13:27:28.262Z,8.63
2019-02-03T13:29:54.508Z,12.93
2019-02-03T13:32:22.243Z,12.13
2019-02-03T13:34:48.440Z,14.50
2019-02-03T13:37:15.690Z,16.27
2019-02-03T13:39:41.739Z,9.25
2019-02-03T13:42:07.990Z,13.22
2019-02-03T13:44:34.082Z,10.75
2019-02-03T13:47:00.273Z,8.90
2019-02-03T13:49:26.447Z,10.63
2019-02-03T13:51:52.520Z,13.53
2019-02-03T13:54:18.675Z,11.45
2019-02-03T13:56:44.718Z,11.73
2019-02-03T13:59:10.869Z,10.10
2019-02-03T14:01:36.947Z,10.60
2019-02-03T14:04:03.477Z,11.63
2019-02-03T14:06:29.760Z,12.75
2019-02-03T14:08:55.868Z,13.28
2019-02-03T14:11:21.986Z,11.80
2019-02-03T14:13:48.146Z,14.03
2019-02-03T14:16:14.222Z,14.28
2019-02-03T14:18:40.468Z,16.12
2019-02-03T14:21:06.510Z,13.48
2019-02-03T14:23:32.797Z,16.90
2019-02-03T14:25:58.883Z,16.65
2019-02-03T14:28:24.899Z,23.57
2019-02-03T14:30:51.407Z,19.05
2019-02-03T14:33:17.583Z,13.35
2019-02-03T14:35:44.352Z,17.35
2019-02-03T14:38:10.405Z,15.75
2019-02-03T14:40:36.662Z,16.17
2019-02-03T14:43:03.677Z,16.57
2019-02-03T14:45:30.017Z,17.98
2019-02-03T14:47:56.051Z,19.73
2019-02-03T14:50:23.783Z,22.02
2019-02-03T14:52:57.331Z,15.93
2019-02-03T14:55:26.364Z,18.00
2019-02-03T14:57:52.413Z,18.82
2019-02-03T15:00:27.322Z,14.75
2019-02-03T15:02:53.507Z,17.25
2019-02-03T15:05:20.246Z,18.92
2019-02-03T15:07:46.356Z,15.40
2019-02-03T15:10:13.501Z,14.83
2019-02-03T15:12:39.534Z,17.20
2019-02-03T15:15:28.813Z,17.77
2019-02-03T15:17:55.329Z,17.00
2019-02-03T15:20:23.008Z,27.27
2019-02-03T15:22:49.163Z,22.85
2019-02-03T15:25:15.414Z,28.40
2019-02-03T15:27:41.736Z,23.35
2019-02-03T15:30:20.201Z,20.07
2019-02-03T15:32:47.611Z,18.90
2019-02-03T15:35:14.641Z,19.42
2019-02-03T15:37:41.711Z,19.45
2019-02-03T15:40:13.807Z,16.75
2019-02-03T15:42:40.051Z,23.95
2019-02-03T15:45:11.603Z,16.70
2019-02-03T15:47:37.651Z,14.80
2019-02-03T15:50:07.515Z,13.50
2019-02-03T15:52:33.546Z,16.17
2019-02-03T15:54:59.829Z,18.25
2019-02-03T15:57:26.167Z,20.85
2019-02-03T15:59:52.304Z,20.62
2019-02-03T16:02:18.466Z,16.20
2019-02-03T16:04:44.496Z,16.20
2019-02-03T16:07:10.584Z,18.75
2019-02-03T16:09:36.694Z,19.70
2019-02-03T16:12:03.475Z,15.73
2019-02-03T16:14:29.500Z,18.30
2019-02-03T16:16:55.541Z,20.40
2019-02-03T16:19:21.590Z,26.30
2019-02-03T16:21:48.148Z,26.17
2019-02-03T16:24:15.352Z,25.57
2019-02-03T16:26:41.483Z,26.00
2019-02-03T16:29:11.375Z,24.02
2019-02-03T16:31:37.529Z,23.98
2019-02-03T16:34:04.087Z,26.57
2019-02-03T16:36:30.292Z,21.47
2019-02-03T16:38:56.331Z,17.80
2019-02-03T16:41:22.383Z,16.57
2019-02-03T16:43:49.357Z,17.87
2019-02-03T16:46:15.517Z,25.02
2019-02-03T16:48:41.728Z,18.00
2019-02-03T16:51:07.885Z,23.25
2019-02-03T16:53:34.203Z,20.72
2019-02-03T16:56:00.313Z,26.33
2019-02-03T16:58:26.752Z,27.75
2019-02-03T17:00:53.065Z,23.60
2019-02-03T17:03:19.404Z,24.50
2019-02-03T17:05:45.438Z,23.83
2019-02-03T17:08:13.535Z,18.57
2019-02-03T17:10:39.668Z,16.40
2019-02-03T17:13:05.864Z,12.63
2019-02-03T17:15:41.116Z,18.50
2019-02-03T17:18:09.346Z,18.85
2019-02-03T17:20:35.390Z,18.07
2019-02-03T17:23:01.700Z,22.70
2019-02-03T17:25:36.743Z,21.12
2019-02-03T17:28:03.276Z,25.43
2019-02-03T17:30:29.611Z,34.50
2019-02-03T17:32:55.656Z,27.98
2019-02-03T17:35:21.935Z,30.82
2019-02-03T17:37:47.992Z,30.05
2019-02-03T17:40:14.738Z,30.13
2019-02-03T17:42:40.861Z,27.22
2019-02-03T17:45:10.955Z,17.60
2019-02-03T17:47:37.388Z,13.38
2019-02-03T17:50:07.429Z,11.67
2019-02-03T17:52:38.906Z,12.68
2019-02-03T17:55:03.740Z,10.40
2019-02-03T17:57:29.464Z,13.63
2019-02-03T17:59:55.532Z,12.98
2019-02-03T18:02:21.688Z,10.65
2019-02-03T18:04:47.993Z,13.32
2019-02-03T18:07:14.320Z,15.20
2019-02-03T18:09:40.377Z,15.38
2019-02-03T18:12:06.669Z,16.70
2019-02-03T18:14:32.713Z,22.90
2019-02-03T18:16:58.751Z,15.38
2019-02-03T18:19:24.774Z,12.70
2019-02-03T18:21:51.207Z,16.47
2019-02-03T18:24:17.306Z,18.25
2019-02-03T18:26:43.392Z,17.92
2019-02-03T18:29:09.470Z,21.48
2019-02-03T18:31:35.609Z,15.63
2019-02-03T18:34:01.622Z,20.30
2019-02-03T18:36:27.698Z,8.80
2019-02-03T18:38:53.729Z,11.88
2019-02-03T18:41:20.176Z,14.18
2019-02-03T18:43:46.911Z,12.03
2019-02-03T18:46:12.954Z,19.07
2019-02-03T18:48:38.979Z,12.33
2019-02-03T18:51:05.106Z,13.22
2019-02-03T18:53:31.119Z,10.57
2019-02-03T18:55:57.352Z,12.30
2019-02-03T18:58:23.378Z,8.60
2019-02-03T19:00:49.713Z,12.65
2019-02-03T19:03:15.979Z,11.03
2019-02-03T19:05:42.598Z,10.13
2019-02-03T19:08:08.766Z,13.53
2019-02-03T19:10:34.987Z,9.25
2019-02-03T19:13:01.094Z,11.28
2019-02-03T19:15:29.748Z,9.20
2019-02-03T19:17:56.315Z,15.32
2019-02-03T19:20:28.496Z,13.83
2019-02-03T19:22:54.548Z,10.23
2019-02-03T19:25:20.681Z,11.90
2019-02-03T19:27:47.277Z,9.90
2019-02-03T19:30:15.903Z,13.75
2019-02-03T19:32:41.948Z,11.65
2019-02-03T19:35:10.627Z,10.93
2019-02-03T19:37:36.659Z,9.58
2019-02-03T19:40:09.645Z,10.05
2019-02-03T19:42:35.755Z,11.80
2019-02-03T19:45:02.693Z,17.40
2019-02-03T19:47:28.723Z,31.50
2019-02-03T19:49:55.634Z,18.57
2019-02-03T19:52:21.704Z,21.75
2019-02-03T19:54:47.792Z,17.20
2019-02-03T19:57:14.039Z,12.83
2019-02-03T19:59:46.559Z,13.00
2019-02-03T20:02:08.130Z,14.30
2019-02-03T20:04:34.164Z,12.60
2019-02-03T20:07:00.212Z,14.80
2019-02-03T20:09:26.451Z,10.30
2019-02-03T20:11:52.565Z,8.20
2019-02-03T20:14:18.817Z,16.12
2019-02-03T20:16:44.945Z,12.73
2019-02-03T20:19:10.979Z,10.75
2019-02-03T20:21:37.044Z,15.32
2019-02-03T20:24:04.348Z,11.63
2019-02-03T20:26:30.539Z,13.75
2019-02-03T20:28:56.623Z,12.20
2019-02-03T20:31:22.674Z,8.45
2019-02-03T20:33:48.684Z,16.15
2019-02-03T20:36:14.855Z,10.80
2019-02-03T20:38:41.144Z,10.70
2019-02-03T20:41:07.179Z,18.60
2019-02-03T20:43:33.222Z,12.33
2019-02-03T20:46:00.013Z,16.42
2019-02-03T20:48:26.045Z,12.65
2019-02-03T20:50:52.335Z,11.07
2019-02-03T20:53:18.691Z,16.07
2019-02-03T20:55:44.712Z,13.23
2019-02-03T20:58:10.862Z,14.40
2019-02-03T21:00:38.165Z,17.40
2019-02-03T21:03:05.033Z,10.03
2019-02-03T21:05:31.539Z,13.15
2019-02-03T21:07:57.704Z,15.13
2019-02-03T21:10:25.118Z,10.10
2019-02-03T21:12:51.151Z,15.10
2019-02-03T21:15:19.193Z,18.32
2019-02-03T21:17:45.446Z,18.45
2019-02-03T21:20:19.559Z,19.35
2019-02-03T21:22:45.900Z,14.05
2019-02-03T21:25:12.229Z,12.20
2019-02-03T21:27:38.282Z,18.12
2019-02-03T21:30:10.920Z,23.13
2019-02-03T21:32:36.990Z,14.78
2019-02-03T21:35:06.138Z,11.05
2019-02-03T21:37:32.615Z,16.37
2019-02-03T21:39:58.655Z,19.70
2019-02-03T21:42:25.379Z,11.22
2019-02-03T21:44:51.425Z,11.68
2019-02-03T21:47:17.582Z,10.80
2019-02-03T21:49:43.631Z,14.18
2019-02-03T21:52:09.701Z,13.85
2019-02-03T21:54:35.812Z,15.90
2019-02-03T21:57:02.184Z,14.03
2019-02-03T21:59:28.244Z,14.95
2019-02-03T22:01:54.269Z,16.93
2019-02-03T22:04:20.323Z,10.65
2019-02-03T22:06:46.389Z,11.80
2019-02-03T22:09:12.515Z,13.85
2019-02-03T22:11:38.633Z,15.15
2019-02-03T22:14:05.212Z,10.50
2019-02-03T22:16:31.235Z,11.95
2019-02-03T22:18:57.294Z,11.10
2019-02-03T22:21:23.452Z,12.07
2019-02-03T22:23:49.493Z,13.65
2019-02-03T22:26:15.526Z,16.40
2019-02-03T22:28:41.699Z,13.62
2019-02-03T22:31:07.879Z,9.20
2019-02-03T22:33:33.998Z,8.87
2019-02-03T22:36:02.097Z,11.20
2019-02-03T22:38:28.125Z,12.00
2019-02-03T22:40:54.194Z,9.48
2019-02-03T22:43:20.362Z,14.27
2019-02-03T22:45:46.399Z,16.95
2019-02-03T22:48:12.811Z,12.15
2019-02-03T22:50:39.180Z,12.35
2019-02-03T22:53:05.428Z,9.60
2019-02-03T22:55:31.465Z,15.30
2019-02-03T22:57:57.528Z,14.47
2019-02-03T23:00:51.816Z,14.05
2019-02-03T23:03:20.598Z,14.28
2019-02-03T23:05:46.680Z,14.38
2019-02-03T23:08:12.819Z,10.28
2019-02-03T23:10:38.898Z,9.68
2019-02-03T23:13:05.382Z,14.63
2019-02-03T23:15:31.404Z,10.28
2019-02-03T23:17:57.480Z,11.50
2019-02-03T23:20:23.867Z,9.88
2019-02-03T23:22:50.000Z,10.05
2019-02-03T23:25:16.059Z,9.97
2019-02-03T23:27:42.123Z,13.20
2019-02-03T23:30:14.256Z,10.95
2019-02-03T23:32:40.445Z,12.10
2019-02-03T23:35:06.735Z,13.32
2019-02-03T23:37:33.161Z,11.45
2019-02-03T23:39:59.242Z,15.80
2019-02-03T23:42:25.319Z,14.00
2019-02-03T23:44:51.429Z,12.33
2019-02-03T23:47:17.624Z,13.65
2019-02-03T23:49:43.779Z,12.37
2019-02-03T23:52:09.859Z,11.70
2019-02-03T23:54:36.173Z,12.58
2019-02-03T23:57:04.020Z,14.65
2019-02-03T23:59:30.089Z,12.58
